createdAt,value
2023-01-20T00:01:05.765Z,-0.71
2023-01-20T00:03:32.316Z,-0.74
2023-01-20T00:05:58.788Z,-0.71
2023-01-20T00:08:25.299Z,-0.67
2023-01-20T00:10:51.744Z,-0.65
2023-01-20T00:13:18.339Z,-0.59
2023-01-20T00:15:44.849Z,-0.71
2023-01-20T00:18:11.863Z,-0.96
2023-01-20T00:20:38.360Z,-0.99
2023-01-20T00:23:04.792Z,-0.81
2023-01-20T00:25:31.517Z,-0.84
2023-01-20T00:27:59.932Z,-0.97
2023-01-20T00:30:27.189Z,-0.96
2023-01-20T00:32:53.648Z,-0.96
2023-01-20T00:35:22.112Z,-0.89
2023-01-20T00:37:50.711Z,-0.91
2023-01-20T00:40:19.398Z,-1.21
2023-01-20T00:42:45.860Z,-1.34
2023-01-20T00:45:12.718Z,-1.41
2023-01-20T00:47:39.571Z,-1.31
2023-01-20T00:50:06.155Z,-1.20
2023-01-20T00:52:32.639Z,-1.22
2023-01-20T00:54:59.084Z,-1.27
2023-01-20T00:57:27.672Z,-1.37
2023-01-20T00:59:54.143Z,-1.29
2023-01-20T01:02:20.608Z,-1.16
2023-01-20T01:04:50.774Z,-1.23
2023-01-20T01:07:18.247Z,-1.33
2023-01-20T01:09:44.733Z,-1.39
2023-01-20T01:12:11.324Z,-1.30
2023-01-20T01:14:37.803Z,-1.17
2023-01-20T01:17:04.263Z,-1.35
2023-01-20T01:19:30.863Z,-1.47
2023-01-20T01:21:57.308Z,-1.54
2023-01-20T01:24:25.921Z,-1.40
2023-01-20T01:26:56.530Z,-1.30
2023-01-20T01:29:25.291Z,-1.44
2023-01-20T01:31:51.728Z,-1.48
2023-01-20T01:34:20.043Z,-1.46
2023-01-20T01:36:46.595Z,-1.28
2023-01-20T01:39:15.227Z,-1.26
2023-01-20T01:41:41.712Z,-1.40
2023-01-20T01:44:09.403Z,-1.46
2023-01-20T01:46:36.690Z,-1.46
2023-01-20T01:49:08.972Z,-1.25
2023-01-20T01:51:44.584Z,-1.25
2023-01-20T01:54:13.304Z,-1.36
2023-01-20T01:56:41.832Z,-1.45
2023-01-20T01:59:09.197Z,-1.44
2023-01-20T02:01:36.552Z,-1.27
2023-01-20T02:04:09.896Z,-1.40
2023-01-20T02:06:39.728Z,-1.38
2023-01-20T02:09:06.256Z,-1.56
2023-01-20T02:11:36.811Z,-1.57
2023-01-20T02:14:03.786Z,-1.47
2023-01-20T02:16:48.885Z,-1.57
2023-01-20T02:19:15.319Z,-1.69
2023-01-20T02:22:00.290Z,-1.78
2023-01-20T02:24:41.172Z,-1.65
2023-01-20T02:27:23.890Z,-1.64
2023-01-20T02:30:06.073Z,-1.87
2023-01-20T02:32:38.728Z,-1.88
2023-01-20T02:35:12.090Z,-1.86
2023-01-20T02:37:48.992Z,-1.83
2023-01-20T02:40:18.482Z,-1.95
2023-01-20T02:42:48.700Z,-2.03
2023-01-20T02:45:24.005Z,-2.10
2023-01-20T02:48:01.176Z,-2.13
2023-01-20T02:50:52.201Z,-2.05
2023-01-20T02:53:20.468Z,-2.00
2023-01-20T02:55:48.117Z,-2.13
2023-01-20T02:58:23.267Z,-2.18
2023-01-20T03:00:59.902Z,-2.17
2023-01-20T03:03:30.070Z,-2.09
2023-01-20T03:05:58.496Z,-2.05
2023-01-20T03:08:27.052Z,-1.94
2023-01-20T03:10:54.565Z,-1.92
2023-01-20T03:13:32.569Z,-1.91
2023-01-20T03:16:00.576Z,-1.87
2023-01-20T03:18:29.104Z,-1.78
2023-01-20T03:20:56.884Z,-1.69
2023-01-20T03:23:23.655Z,-1.77
2023-01-20T03:25:50.546Z,-1.80
2023-01-20T03:28:16.980Z,-1.85
2023-01-20T03:30:43.525Z,-1.80
2023-01-20T03:33:10.561Z,-1.66
2023-01-20T03:35:38.597Z,-1.96
2023-01-20T03:38:05.076Z,-2.28
2023-01-20T03:40:34.788Z,-2.27
2023-01-20T03:43:10.119Z,-2.04
2023-01-20T03:45:59.104Z,-2.15
2023-01-20T03:48:28.288Z,-2.34
2023-01-20T03:51:09.408Z,-2.43
2023-01-20T03:53:59.240Z,-2.49
2023-01-20T03:56:32.005Z,-2.41
2023-01-20T03:58:59.883Z,-2.25
2023-01-20T04:01:35.775Z,-2.38
2023-01-20T04:04:03.940Z,-2.45
2023-01-20T04:06:31.711Z,-2.53
2023-01-20T04:09:01.241Z,-2.56
2023-01-20T04:11:27.972Z,-2.38
2023-01-20T04:13:54.716Z,-2.36
2023-01-20T04:16:22.386Z,-2.47
2023-01-20T04:18:50.348Z,-2.63
2023-01-20T04:21:37.110Z,-2.74
2023-01-20T04:24:11.385Z,-2.68
2023-01-20T04:26:39.376Z,-2.46
2023-01-20T04:29:11.107Z,-2.38
2023-01-20T04:31:39.469Z,-2.36
2023-01-20T04:34:06.355Z,-2.26
2023-01-20T04:36:32.855Z,-2.18
2023-01-20T04:38:59.356Z,-2.03
2023-01-20T04:41:25.820Z,-2.11
2023-01-20T04:43:52.284Z,-2.18
2023-01-20T04:46:18.806Z,-2.24
2023-01-20T04:48:45.447Z,-2.33
2023-01-20T04:51:12.411Z,-2.30
2023-01-20T04:53:39.503Z,-2.11
2023-01-20T04:56:10.907Z,-2.16
2023-01-20T04:58:37.353Z,-2.21
2023-01-20T05:01:03.890Z,-2.24
2023-01-20T05:03:32.489Z,-2.29
2023-01-20T05:05:58.924Z,-2.25
2023-01-20T05:08:27.653Z,-2.09
2023-01-20T05:10:54.147Z,-2.15
2023-01-20T05:13:20.628Z,-2.18
2023-01-20T05:15:47.124Z,-2.12
2023-01-20T05:18:13.646Z,-2.10
2023-01-20T05:20:40.268Z,-2.02
2023-01-20T05:23:07.164Z,-1.90
2023-01-20T05:25:33.659Z,-1.78
2023-01-20T05:28:00.863Z,-1.98
2023-01-20T05:30:27.527Z,-2.26
2023-01-20T05:32:54.139Z,-2.31
2023-01-20T05:35:20.630Z,-2.32
2023-01-20T05:37:47.208Z,-2.09
2023-01-20T05:40:13.891Z,-2.23
2023-01-20T05:42:40.581Z,-2.33
2023-01-20T05:45:09.489Z,-2.20
2023-01-20T05:47:36.090Z,-1.97
2023-01-20T05:50:02.686Z,-2.13
2023-01-20T05:52:29.227Z,-2.24
2023-01-20T05:54:55.910Z,-2.30
2023-01-20T05:57:25.449Z,-2.22
2023-01-20T05:59:52.828Z,-2.08
2023-01-20T06:02:19.959Z,-2.09
2023-01-20T06:04:46.551Z,-2.23
2023-01-20T06:07:13.301Z,-2.32
2023-01-20T06:09:39.800Z,-2.35
2023-01-20T06:12:08.284Z,-2.27
2023-01-20T06:14:34.729Z,-2.06
2023-01-20T06:17:03.431Z,-2.22
2023-01-20T06:19:29.878Z,-2.25
2023-01-20T06:21:56.373Z,-2.28
2023-01-20T06:24:22.898Z,-2.27
2023-01-20T06:26:53.114Z,-2.07
2023-01-20T06:29:19.600Z,-2.13
2023-01-20T06:32:04.531Z,-2.19
2023-01-20T06:34:34.471Z,-2.24
2023-01-20T06:37:02.236Z,-2.25
2023-01-20T06:39:31.304Z,-2.10
2023-01-20T06:41:58.869Z,-2.04
2023-01-20T06:44:27.932Z,-2.13
2023-01-20T06:46:54.507Z,-2.17
2023-01-20T06:49:21.130Z,-2.15
2023-01-20T06:51:48.848Z,-2.10
2023-01-20T06:54:15.744Z,-1.90
2023-01-20T06:56:42.228Z,-2.05
2023-01-20T06:59:10.077Z,-2.08
2023-01-20T07:01:36.750Z,-2.09
2023-01-20T07:04:03.389Z,-2.10
2023-01-20T07:06:40.340Z,-1.91
2023-01-20T07:09:08.152Z,-2.03
2023-01-20T07:11:37.727Z,-2.07
2023-01-20T07:14:04.867Z,-2.11
2023-01-20T07:16:31.522Z,-2.11
2023-01-20T07:18:58.146Z,-1.89
2023-01-20T07:21:26.397Z,-1.97
2023-01-20T07:23:53.321Z,-1.98
2023-01-20T07:26:22.503Z,-2.04
2023-01-20T07:28:49.139Z,-2.05
2023-01-20T07:31:16.958Z,-1.89
2023-01-20T07:33:43.502Z,-1.98
2023-01-20T07:36:10.519Z,-2.08
2023-01-20T07:38:37.021Z,-2.12
2023-01-20T07:41:05.168Z,-2.10
2023-01-20T07:43:32.086Z,-1.97
2023-01-20T07:45:59.894Z,-1.89
2023-01-20T07:48:26.828Z,-1.98
2023-01-20T07:51:02.892Z,-2.01
2023-01-20T07:53:29.644Z,-2.01
2023-01-20T07:55:56.202Z,-1.94
2023-01-20T07:58:22.729Z,-1.83
2023-01-20T08:00:49.246Z,-1.90
2023-01-20T08:03:16.328Z,-1.92
2023-01-20T08:05:42.829Z,-1.87
2023-01-20T08:08:09.322Z,-1.84
2023-01-20T08:10:35.892Z,-1.73
2023-01-20T08:13:02.663Z,-1.62
2023-01-20T08:15:29.141Z,-1.70
2023-01-20T08:17:56.042Z,-2.02
2023-01-20T08:20:22.867Z,-2.14
2023-01-20T08:22:49.388Z,-2.10
2023-01-20T08:25:16.071Z,-1.84
2023-01-20T08:27:43.562Z,-1.89
2023-01-20T08:30:10.371Z,-2.06
2023-01-20T08:32:36.847Z,-1.95
2023-01-20T08:35:03.391Z,-1.71
2023-01-20T08:37:29.882Z,-1.82
2023-01-20T08:39:56.370Z,-1.96
2023-01-20T08:42:22.813Z,-1.96
2023-01-20T08:44:51.920Z,-1.98
2023-01-20T08:47:20.600Z,-1.95
2023-01-20T08:49:47.194Z,-1.71
2023-01-20T08:52:13.666Z,-1.89
2023-01-20T08:54:40.172Z,-1.94
2023-01-20T08:57:06.812Z,-1.97
2023-01-20T08:59:33.255Z,-1.99
2023-01-20T09:01:59.734Z,-1.84
2023-01-20T09:04:26.177Z,-1.77
2023-01-20T09:06:53.884Z,-1.91
2023-01-20T09:09:21.705Z,-1.96
2023-01-20T09:11:51.818Z,-2.00
2023-01-20T09:14:22.492Z,-1.89
2023-01-20T09:16:49.049Z,-1.70
2023-01-20T09:19:15.668Z,-1.90
2023-01-20T09:21:42.615Z,-1.94
2023-01-20T09:24:09.502Z,-1.98
2023-01-20T09:26:41.639Z,-1.97
2023-01-20T09:29:10.994Z,-1.79
2023-01-20T09:31:38.420Z,-1.88
2023-01-20T09:34:04.966Z,-1.94
2023-01-20T09:36:31.646Z,-1.95
2023-01-20T09:39:16.884Z,-1.96
2023-01-20T09:42:04.424Z,-1.71
2023-01-20T09:44:53.549Z,-1.78
2023-01-20T09:47:31.030Z,-1.91
2023-01-20T09:50:16.724Z,-1.94
2023-01-20T09:53:02.751Z,-1.88
2023-01-20T09:55:31.940Z,-1.62
2023-01-20T09:58:05.659Z,-1.78
2023-01-20T10:00:33.964Z,-1.80
2023-01-20T10:03:04.134Z,-1.84
2023-01-20T10:05:33.977Z,-1.78
2023-01-20T10:08:07.784Z,-1.58
2023-01-20T10:10:40.959Z,-1.76
2023-01-20T10:13:20.669Z,-1.83
2023-01-20T10:15:50.716Z,-1.85
2023-01-20T10:18:20.323Z,-1.76
2023-01-20T10:20:59.655Z,-1.59
2023-01-20T10:23:35.081Z,-1.68
2023-01-20T10:26:03.387Z,-1.71
2023-01-20T10:28:32.641Z,-1.69
2023-01-20T10:31:03.279Z,-1.54
2023-01-20T10:33:38.505Z,-1.53
2023-01-20T10:36:09.067Z,-1.65
2023-01-20T10:38:38.663Z,-1.71
2023-01-20T10:41:23.639Z,-1.72
2023-01-20T10:43:50.156Z,-1.48
2023-01-20T10:46:25.693Z,-1.45
2023-01-20T10:49:25.616Z,-1.54
2023-01-20T10:52:08.629Z,-1.56
2023-01-20T10:54:43.059Z,-1.59
2023-01-20T10:57:12.741Z,-1.36
2023-01-20T11:00:08.789Z,-1.46
2023-01-20T11:02:37.915Z,-1.57
2023-01-20T11:05:16.826Z,-1.59
2023-01-20T11:07:44.478Z,-1.46
2023-01-20T11:10:15.865Z,-1.37
2023-01-20T11:12:43.536Z,-1.51
2023-01-20T11:15:39.321Z,-1.56
2023-01-20T11:18:15.006Z,-1.57
2023-01-20T11:20:46.677Z,-1.37
2023-01-20T11:23:32.352Z,-1.31
2023-01-20T11:26:09.851Z,-1.42
2023-01-20T11:28:44.433Z,-1.45
2023-01-20T11:31:11.294Z,-1.40
2023-01-20T11:33:37.813Z,-1.21
2023-01-20T11:36:16.653Z,-1.32
2023-01-20T11:38:44.655Z,-1.35
2023-01-20T11:41:18.308Z,-1.34
2023-01-20T11:43:44.795Z,-1.24
2023-01-20T11:46:12.544Z,-1.07
2023-01-20T11:48:39.161Z,-1.19
2023-01-20T11:51:05.746Z,-1.25
2023-01-20T11:53:35.314Z,-1.24
2023-01-20T11:56:34.372Z,-1.11
2023-01-20T11:59:03.339Z,-1.01
2023-01-20T12:01:31.153Z,-1.08
2023-01-20T12:04:16.168Z,-1.12
2023-01-20T12:06:49.503Z,-1.14
2023-01-20T12:09:18.353Z,-0.93
2023-01-20T12:12:03.684Z,-0.98
2023-01-20T12:14:38.196Z,-1.12
2023-01-20T12:17:20.608Z,-1.17
2023-01-20T12:19:59.476Z,-1.16
2023-01-20T12:22:49.101Z,-0.96
2023-01-20T12:25:24.018Z,-1.10
2023-01-20T12:28:06.586Z,-1.14
2023-01-20T12:30:42.178Z,-1.18
2023-01-20T12:33:31.840Z,-1.01
2023-01-20T12:36:04.511Z,-1.07
2023-01-20T12:38:36.539Z,-1.12
2023-01-20T12:41:07.860Z,-1.12
2023-01-20T12:43:42.742Z,-1.05
2023-01-20T12:46:21.533Z,-0.88
2023-01-20T12:48:47.962Z,-0.99
2023-01-20T12:51:14.386Z,-1.00
2023-01-20T12:54:00.800Z,-1.00
2023-01-20T12:56:33.325Z,-0.88
2023-01-20T12:59:10.695Z,-0.86
2023-01-20T13:01:44.093Z,-0.93
2023-01-20T13:04:31.121Z,-0.97
2023-01-20T13:06:57.607Z,-1.00
2023-01-20T13:09:37.047Z,-0.85
2023-01-20T13:12:22.108Z,-0.90
2023-01-20T13:14:55.710Z,-0.94
2023-01-20T13:17:37.940Z,-0.95
2023-01-20T13:20:05.209Z,-0.90
2023-01-20T13:22:31.768Z,-0.75
2023-01-20T13:24:59.213Z,-0.83
2023-01-20T13:27:28.163Z,-0.90
2023-01-20T13:29:56.845Z,-0.95
2023-01-20T13:32:27.837Z,-0.95
2023-01-20T13:34:54.537Z,-0.80
2023-01-20T13:37:27.075Z,-0.87
2023-01-20T13:39:54.960Z,-0.93
2023-01-20T13:42:36.772Z,-0.97
2023-01-20T13:45:15.594Z,-0.97
2023-01-20T13:47:51.618Z,-0.86
2023-01-20T13:50:34.850Z,-0.83
2023-01-20T13:53:10.695Z,-0.91
2023-01-20T13:55:47.327Z,-0.95
2023-01-20T13:58:18.398Z,-0.95
2023-01-20T14:00:45.680Z,-0.85
2023-01-20T14:03:18.177Z,-0.79
2023-01-20T14:05:48.956Z,-0.82
2023-01-20T14:08:15.828Z,-0.84
2023-01-20T14:10:42.557Z,-0.88
2023-01-20T14:13:10.445Z,-0.81
2023-01-20T14:15:38.066Z,-0.76
2023-01-20T14:18:04.776Z,-0.72
2023-01-20T14:20:31.624Z,-0.99
2023-01-20T14:23:16.879Z,-1.50
2023-01-20T14:25:45.670Z,-1.80
2023-01-20T14:28:19.971Z,-1.73
2023-01-20T14:30:46.512Z,-1.58
2023-01-20T14:33:15.995Z,-1.73
2023-01-20T14:35:42.469Z,-1.96
2023-01-20T14:38:18.599Z,-2.04
2023-01-20T14:40:49.015Z,-2.02
2023-01-20T14:43:19.721Z,-2.16
2023-01-20T14:45:47.195Z,-2.04
2023-01-20T14:48:28.200Z,-2.20
2023-01-20T14:51:02.655Z,-2.27
2023-01-20T14:53:29.220Z,-2.37
2023-01-20T14:56:07.677Z,-2.35
2023-01-20T14:58:36.267Z,-2.34
2023-01-20T15:01:06.743Z,-2.22
2023-01-20T15:03:33.331Z,-2.42
2023-01-20T15:05:59.858Z,-2.53
2023-01-20T15:08:32.394Z,-2.62
2023-01-20T15:11:14.959Z,-2.65
2023-01-20T15:13:43.046Z,-2.60
2023-01-20T15:16:19.925Z,-2.55
2023-01-20T15:19:06.644Z,-2.82
2023-01-20T15:21:35.404Z,-3.00
2023-01-20T15:24:13.917Z,-3.15
2023-01-20T15:26:42.018Z,-3.22
2023-01-20T15:29:25.508Z,-3.14
2023-01-20T15:31:52.558Z,-3.04
2023-01-20T15:34:19.427Z,-2.97
2023-01-20T15:36:46.759Z,-3.06
2023-01-20T15:39:14.061Z,-3.17
2023-01-20T15:41:40.845Z,-3.27
2023-01-20T15:44:07.444Z,-3.41
2023-01-20T15:46:34.438Z,-3.43
2023-01-20T15:49:01.254Z,-3.39
2023-01-20T15:51:28.169Z,-3.30
2023-01-20T15:53:54.647Z,-3.43
2023-01-20T15:56:22.797Z,-3.47
2023-01-20T15:58:49.718Z,-3.40
2023-01-20T16:01:17.972Z,-3.32
2023-01-20T16:03:45.081Z,-3.27
2023-01-20T16:06:15.792Z,-3.34
2023-01-20T16:08:46.118Z,-3.40
2023-01-20T16:11:13.533Z,-3.34
2023-01-20T16:13:40.687Z,-3.21
2023-01-20T16:16:12.346Z,-3.22
2023-01-20T16:18:38.876Z,-3.27
2023-01-20T16:21:05.846Z,-3.32
2023-01-20T16:23:32.294Z,-3.40
2023-01-20T16:25:59.075Z,-3.34
2023-01-20T16:28:27.008Z,-3.55
2023-01-20T16:30:54.981Z,-3.78
2023-01-20T16:33:22.878Z,-3.94
2023-01-20T16:35:55.928Z,-3.70
2023-01-20T16:38:23.772Z,-3.60
2023-01-20T16:40:51.356Z,-3.89
2023-01-20T16:43:19.897Z,-3.92
2023-01-20T16:45:54.207Z,-3.68
2023-01-20T16:48:21.831Z,-3.66
2023-01-20T16:50:48.473Z,-3.79
2023-01-20T16:53:15.929Z,-3.87
2023-01-20T16:55:46.221Z,-3.88
2023-01-20T16:58:13.568Z,-3.99
2023-01-20T17:00:40.682Z,-3.86
2023-01-20T17:03:07.201Z,-4.15
2023-01-20T17:05:35.020Z,-4.07
2023-01-20T17:08:02.438Z,-3.79
2023-01-20T17:10:30.092Z,-4.06
2023-01-20T17:12:56.874Z,-4.19
2023-01-20T17:15:24.083Z,-3.93
2023-01-20T17:17:51.596Z,-3.69
2023-01-20T17:20:18.447Z,-3.65
2023-01-20T17:22:44.988Z,-3.60
2023-01-20T17:25:11.525Z,-3.39
2023-01-20T17:27:39.577Z,-3.31
2023-01-20T17:30:10.543Z,-3.32
2023-01-20T17:32:37.517Z,-3.26
2023-01-20T17:35:04.477Z,-3.10
2023-01-20T17:37:31.018Z,-2.84
2023-01-20T17:39:57.602Z,-2.70
2023-01-20T17:42:24.081Z,-2.88
2023-01-20T17:44:50.548Z,-2.91
2023-01-20T17:47:17.028Z,-2.90
2023-01-20T17:49:43.543Z,-2.93
2023-01-20T17:52:10.020Z,-2.77
2023-01-20T17:54:36.483Z,-2.67
2023-01-20T17:57:04.803Z,-2.78
2023-01-20T17:59:31.270Z,-2.79
2023-01-20T18:01:57.838Z,-2.88
2023-01-20T18:04:24.358Z,-2.87
2023-01-20T18:06:51.284Z,-2.71
2023-01-20T18:09:17.863Z,-2.83
2023-01-20T18:11:44.366Z,-2.78
2023-01-20T18:14:11.001Z,-2.75
2023-01-20T18:16:38.875Z,-2.65
2023-01-20T18:19:05.448Z,-2.48
2023-01-20T18:21:33.006Z,-2.55
2023-01-20T18:24:00.591Z,-2.62
2023-01-20T18:26:29.626Z,-2.64
2023-01-20T18:28:57.869Z,-2.61
2023-01-20T18:31:25.005Z,-2.42
2023-01-20T18:33:52.952Z,-2.40
2023-01-20T18:36:24.636Z,-2.44
2023-01-20T18:38:52.053Z,-2.45
2023-01-20T18:41:18.946Z,-2.44
2023-01-20T18:43:45.756Z,-2.35
2023-01-20T18:46:12.657Z,-2.25
2023-01-20T18:48:42.661Z,-2.32
2023-01-20T18:51:11.875Z,-2.35
2023-01-20T18:53:38.440Z,-2.36
2023-01-20T18:56:06.511Z,-2.31
2023-01-20T18:58:33.303Z,-2.13
2023-01-20T19:01:07.449Z,-2.16
2023-01-20T19:03:34.428Z,-2.19
2023-01-20T19:06:05.175Z,-2.19
2023-01-20T19:08:31.988Z,-2.18
2023-01-20T19:11:05.849Z,-2.15
2023-01-20T19:13:32.446Z,-2.02
2023-01-20T19:15:59.020Z,-1.96
2023-01-20T19:18:25.604Z,-2.00
2023-01-20T19:20:52.551Z,-2.00
2023-01-20T19:23:19.252Z,-1.95
2023-01-20T19:25:45.708Z,-1.86
2023-01-20T19:31:04.809Z,-1.97
2023-01-20T19:33:31.508Z,-2.12
2023-01-20T19:35:59.181Z,-2.11
2023-01-20T19:38:26.430Z,-1.99
2023-01-20T19:40:52.865Z,-1.93
2023-01-20T19:43:20.001Z,-2.27
2023-01-20T19:45:46.573Z,-2.39
2023-01-20T19:48:13.138Z,-2.21
2023-01-20T19:50:39.898Z,-2.12
2023-01-20T19:53:06.412Z,-2.31
2023-01-20T19:55:32.903Z,-2.37
2023-01-20T19:57:59.407Z,-2.50
2023-01-20T20:00:25.901Z,-2.56
2023-01-20T20:02:55.690Z,-2.58
2023-01-20T20:05:22.182Z,-2.37
2023-01-20T20:07:49.855Z,-2.48
2023-01-20T20:10:17.694Z,-2.55
2023-01-20T20:12:45.417Z,-2.58
2023-01-20T20:15:11.896Z,-2.58
2023-01-20T20:17:38.355Z,-2.64
2023-01-20T20:20:05.436Z,-2.66
2023-01-20T20:22:31.880Z,-2.47
2023-01-20T20:24:58.386Z,-2.51
2023-01-20T20:27:25.516Z,-2.55
2023-01-20T20:29:51.984Z,-2.46
2023-01-20T20:32:18.436Z,-2.53
2023-01-20T20:34:45.113Z,-2.64
2023-01-20T20:37:11.553Z,-2.56
2023-01-20T20:39:38.037Z,-2.48
2023-01-20T20:42:04.497Z,-2.59
2023-01-20T20:44:30.995Z,-2.62
2023-01-20T20:46:57.996Z,-2.61
2023-01-20T20:49:24.500Z,-2.62
2023-01-20T20:51:51.023Z,-2.49
2023-01-20T20:54:17.490Z,-2.45
2023-01-20T20:56:44.970Z,-2.56
2023-01-20T20:59:11.506Z,-2.59
2023-01-20T21:01:38.442Z,-2.62
2023-01-20T21:04:05.822Z,-2.63
2023-01-20T21:06:32.645Z,-2.53
2023-01-20T21:08:59.720Z,-2.39
2023-01-20T21:11:26.344Z,-2.52
2023-01-20T21:13:53.806Z,-2.56
2023-01-20T21:16:22.771Z,-2.54
2023-01-20T21:18:51.934Z,-2.54
2023-01-20T21:21:19.531Z,-2.46
2023-01-20T21:23:50.189Z,-2.37
2023-01-20T21:26:16.789Z,-2.41
2023-01-20T21:28:44.505Z,-2.42
2023-01-20T21:31:15.000Z,-2.45
2023-01-20T21:33:42.417Z,-2.42
2023-01-20T21:36:10.019Z,-2.39
2023-01-20T21:38:37.518Z,-2.27
2023-01-20T21:41:04.939Z,-2.31
2023-01-20T21:43:49.816Z,-2.32
2023-01-20T21:46:16.408Z,-2.30
2023-01-20T21:49:01.566Z,-2.27
2023-01-20T21:51:46.633Z,-2.21
2023-01-20T21:54:13.083Z,-2.15
2023-01-20T21:56:39.720Z,-2.16
2023-01-20T21:59:06.224Z,-2.56
2023-01-20T22:01:32.741Z,-2.79
2023-01-20T22:03:59.290Z,-2.83
2023-01-20T22:06:25.736Z,-2.61
2023-01-20T22:08:52.296Z,-2.60
2023-01-20T22:11:18.738Z,-2.84
2023-01-20T22:13:45.247Z,-2.81
2023-01-20T22:16:11.746Z,-2.63
2023-01-20T22:18:39.287Z,-2.62
2023-01-20T22:21:06.498Z,-2.72
2023-01-20T22:23:35.979Z,-2.83
2023-01-20T22:26:02.762Z,-2.91
2023-01-20T22:28:30.080Z,-2.99
2023-01-20T22:31:04.175Z,-3.06
2023-01-20T22:33:30.711Z,-3.04
2023-01-20T22:35:57.160Z,-2.84
2023-01-20T22:38:23.644Z,-3.02
2023-01-20T22:40:50.113Z,-3.10
2023-01-20T22:43:16.584Z,-3.17
2023-01-20T22:45:43.118Z,-3.22
2023-01-20T22:48:09.638Z,-3.24
2023-01-20T22:50:36.146Z,-3.24
2023-01-20T22:53:02.962Z,-3.25
2023-01-20T22:55:29.431Z,-3.03
2023-01-20T22:57:55.931Z,-3.20
2023-01-20T23:00:24.257Z,-3.23
2023-01-20T23:02:50.765Z,-3.26
2023-01-20T23:05:17.236Z,-3.27
2023-01-20T23:07:43.744Z,-3.24
2023-01-20T23:10:30.600Z,-3.21
2023-01-20T23:12:57.081Z,-3.16
2023-01-20T23:15:23.537Z,-3.10
2023-01-20T23:17:50.011Z,-3.17
2023-01-20T23:20:16.922Z,-3.26
2023-01-20T23:22:43.621Z,-3.30
2023-01-20T23:25:10.474Z,-3.32
2023-01-20T23:27:36.990Z,-3.34
2023-01-20T23:30:05.676Z,-3.35
2023-01-20T23:32:32.115Z,-3.34
2023-01-20T23:35:00.475Z,-3.27
2023-01-20T23:37:26.925Z,-3.30
2023-01-20T23:39:53.468Z,-3.35
2023-01-20T23:42:22.758Z,-3.36
2023-01-20T23:44:49.264Z,-3.42
2023-01-20T23:47:15.733Z,-3.41
2023-01-20T23:49:42.168Z,-3.40
2023-01-20T23:52:08.612Z,-3.31
2023-01-20T23:54:35.091Z,-3.18
2023-01-20T23:57:01.553Z,-3.16
2023-01-20T23:59:28.050Z,-3.64
